createdAt,value
2023-05-15T00:04:02.832Z,16.97
2023-05-15T00:10:44.879Z,16.87
2023-05-15T00:13:47.868Z,16.86
2023-05-15T00:20:24.469Z,16.82
2023-05-15T00:22:57.431Z,16.82
2023-05-15T00:25:36.374Z,16.80
2023-05-15T00:28:04.996Z,16.80
2023-05-15T00:30:34.040Z,16.78
2023-05-15T00:33:03.043Z,16.78
2023-05-15T00:35:31.233Z,16.77
2023-05-15T00:37:59.544Z,16.74
2023-05-15T00:40:27.173Z,16.73
2023-05-15T00:43:12.685Z,16.71
2023-05-15T00:45:41.604Z,16.65
2023-05-15T00:48:13.056Z,16.62
2023-05-15T00:50:43.256Z,16.61
2023-05-15T00:53:10.574Z,16.67
2023-05-15T00:55:37.660Z,16.80
2023-05-15T00:58:04.772Z,16.76
2023-05-15T01:00:33.361Z,16.81
2023-05-15T01:03:02.192Z,16.83
2023-05-15T01:05:29.868Z,16.78
2023-05-15T01:07:58.160Z,16.77
2023-05-15T01:10:25.345Z,16.75
2023-05-15T01:12:54.635Z,16.74
2023-05-15T01:15:21.787Z,16.70
2023-05-15T01:17:48.957Z,16.95
2023-05-15T01:20:16.182Z,16.77
2023-05-15T01:23:00.848Z,16.61
2023-05-15T01:25:57.481Z,16.57
2023-05-15T01:28:27.099Z,16.52
2023-05-15T01:30:54.702Z,16.50
2023-05-15T01:33:23.505Z,16.76
2023-05-15T01:35:53.807Z,17.19
2023-05-15T01:38:40.782Z,17.04
2023-05-15T01:41:12.032Z,16.53
2023-05-15T01:43:39.820Z,16.44
2023-05-15T01:46:08.459Z,16.39
2023-05-15T01:48:36.790Z,16.33
2023-05-15T01:51:05.071Z,16.30
2023-05-15T01:53:32.458Z,16.31
2023-05-15T01:55:59.837Z,16.30
2023-05-15T01:58:27.557Z,16.28
2023-05-15T02:00:54.691Z,16.27
2023-05-15T02:03:23.209Z,16.29
2023-05-15T02:05:50.617Z,16.30
2023-05-15T02:08:17.820Z,16.31
2023-05-15T02:10:45.014Z,16.31
2023-05-15T02:13:12.118Z,16.35
2023-05-15T02:15:39.235Z,16.39
2023-05-15T02:18:06.937Z,16.43
2023-05-15T02:20:34.300Z,16.44
2023-05-15T02:23:01.963Z,16.46
2023-05-15T02:25:40.156Z,16.47
2023-05-15T02:28:07.247Z,16.57
2023-05-15T02:30:43.785Z,16.65
2023-05-15T02:33:11.454Z,16.75
2023-05-15T02:35:47.002Z,17.00
2023-05-15T02:38:17.209Z,17.32
2023-05-15T02:40:44.723Z,17.70
2023-05-15T02:43:11.892Z,18.07
2023-05-15T02:45:39.907Z,18.49
2023-05-15T02:48:07.305Z,18.92
2023-05-15T02:50:34.497Z,19.39
2023-05-15T02:53:05.188Z,19.83
2023-05-15T02:55:32.240Z,20.15
2023-05-15T02:57:59.433Z,20.28
2023-05-15T03:00:26.580Z,20.30
2023-05-15T03:02:53.828Z,20.31
2023-05-15T03:05:21.274Z,20.51
2023-05-15T03:07:48.499Z,20.91
2023-05-15T03:10:16.067Z,21.29
2023-05-15T03:12:43.226Z,21.13
2023-05-15T03:15:10.478Z,21.44
2023-05-15T03:17:37.764Z,21.99
2023-05-15T03:20:05.358Z,22.43
2023-05-15T03:22:32.534Z,22.92
2023-05-15T03:25:02.436Z,23.38
2023-05-15T03:27:29.486Z,23.60
2023-05-15T03:29:56.769Z,23.73
2023-05-15T03:32:23.902Z,23.95
2023-05-15T03:34:51.088Z,24.47
2023-05-15T03:37:18.183Z,24.80
2023-05-15T03:39:45.442Z,25.04
2023-05-15T03:42:13.025Z,25.44
2023-05-15T03:44:41.440Z,25.86
2023-05-15T03:47:08.571Z,26.31
2023-05-15T03:49:35.648Z,26.65
2023-05-15T03:52:04.485Z,26.82
2023-05-15T03:54:31.598Z,27.21
2023-05-15T03:56:58.729Z,27.66
2023-05-15T03:59:25.850Z,27.83
2023-05-15T04:02:03.639Z,28.03
2023-05-15T04:04:32.596Z,28.37
2023-05-15T04:06:59.915Z,28.70
2023-05-15T04:09:27.014Z,29.06
2023-05-15T04:11:53.958Z,29.49
2023-05-15T04:14:21.141Z,29.82
2023-05-15T04:16:48.181Z,30.13
2023-05-15T04:19:15.700Z,30.38
2023-05-15T04:21:42.965Z,30.51
2023-05-15T04:24:10.426Z,30.76
2023-05-15T04:26:38.116Z,31.03
2023-05-15T04:29:05.354Z,31.31
2023-05-15T04:31:32.984Z,31.69
2023-05-15T04:34:00.246Z,32.06
2023-05-15T04:36:27.369Z,32.06
2023-05-15T04:38:54.508Z,32.27
2023-05-15T04:41:21.816Z,32.60
2023-05-15T04:43:49.315Z,32.39
2023-05-15T04:46:16.527Z,32.82
2023-05-15T04:48:44.218Z,33.24
2023-05-15T04:51:12.162Z,33.70
2023-05-15T04:53:39.316Z,34.01
2023-05-15T04:56:06.633Z,34.25
2023-05-15T04:58:33.796Z,34.46
2023-05-15T05:01:03.503Z,34.55
2023-05-15T05:03:31.289Z,34.74
2023-05-15T05:05:58.834Z,34.79
2023-05-15T05:08:25.995Z,35.06
2023-05-15T05:10:59.290Z,35.38
2023-05-15T05:13:26.438Z,35.41
2023-05-15T05:15:53.584Z,35.46
2023-05-15T05:18:20.750Z,35.61
2023-05-15T05:20:48.181Z,35.76
2023-05-15T05:23:15.699Z,35.93
2023-05-15T05:25:42.963Z,36.09
2023-05-15T05:28:10.163Z,36.37
2023-05-15T05:30:37.304Z,36.72
2023-05-15T05:33:04.581Z,37.09
2023-05-15T05:35:31.826Z,37.39
2023-05-15T05:37:59.086Z,37.36
2023-05-15T05:40:26.192Z,37.46
2023-05-15T05:42:53.402Z,37.46
2023-05-15T05:45:21.193Z,37.39
2023-05-15T05:47:48.479Z,37.33
2023-05-15T05:50:15.807Z,37.38
2023-05-15T05:52:43.990Z,37.63
2023-05-15T05:55:11.237Z,37.61
2023-05-15T05:57:38.473Z,37.84
2023-05-15T06:00:12.163Z,37.94
2023-05-15T06:02:39.839Z,38.22
2023-05-15T06:05:07.720Z,38.33
2023-05-15T06:07:35.442Z,38.44
2023-05-15T06:10:03.168Z,38.62
2023-05-15T06:12:30.331Z,38.74
2023-05-15T06:14:57.507Z,39.02
2023-05-15T06:17:24.746Z,39.31
2023-05-15T06:19:52.261Z,39.56
2023-05-15T06:22:19.428Z,39.61
2023-05-15T06:24:46.619Z,39.78
2023-05-15T06:27:13.757Z,39.85
2023-05-15T06:29:40.903Z,39.88
2023-05-15T06:32:08.125Z,39.69
2023-05-15T06:34:35.522Z,39.71
2023-05-15T06:37:02.681Z,39.91
2023-05-15T06:39:29.808Z,40.04
2023-05-15T06:42:01.636Z,40.25
2023-05-15T06:44:33.494Z,40.54
2023-05-15T06:47:00.649Z,40.73
2023-05-15T06:49:28.095Z,40.91
2023-05-15T06:51:55.515Z,41.40
2023-05-15T06:54:22.658Z,41.64
2023-05-15T06:56:50.194Z,41.71
2023-05-15T06:59:17.306Z,41.87
2023-05-15T07:01:44.401Z,41.76
2023-05-15T07:04:13.747Z,41.93
2023-05-15T07:06:40.936Z,41.99
2023-05-15T07:09:08.015Z,42.25
2023-05-15T07:11:37.722Z,42.37
2023-05-15T07:14:05.044Z,42.41
2023-05-15T07:16:32.178Z,42.50
2023-05-15T07:18:59.420Z,42.45
2023-05-15T07:21:26.554Z,42.50
2023-05-15T07:23:53.634Z,42.50
2023-05-15T07:26:32.450Z,42.68
2023-05-15T07:29:04.547Z,42.72
2023-05-15T07:31:32.410Z,42.85
2023-05-15T07:33:59.690Z,42.41
2023-05-15T07:36:27.062Z,42.10
2023-05-15T07:38:54.270Z,41.86
2023-05-15T07:41:22.482Z,41.25
2023-05-15T07:43:50.986Z,40.82
2023-05-15T07:46:18.239Z,40.90
2023-05-15T07:48:45.565Z,41.21
2023-05-15T07:51:12.849Z,41.39
2023-05-15T07:53:40.100Z,41.26
2023-05-15T07:56:07.547Z,41.52
2023-05-15T07:58:37.298Z,41.82
2023-05-15T08:01:05.016Z,41.99
2023-05-15T08:03:32.498Z,41.95
2023-05-15T08:06:00.309Z,41.82
2023-05-15T08:08:27.603Z,41.93
2023-05-15T08:10:54.834Z,41.89
2023-05-15T08:13:22.015Z,42.03
2023-05-15T08:15:49.318Z,42.03
2023-05-15T08:18:16.696Z,42.09
2023-05-15T08:20:44.209Z,42.15
2023-05-15T08:23:13.604Z,42.21
2023-05-15T08:25:41.144Z,42.25
2023-05-15T08:28:08.311Z,42.14
2023-05-15T08:30:36.535Z,41.93
2023-05-15T08:33:03.898Z,41.77
2023-05-15T08:35:31.279Z,41.91
2023-05-15T08:37:58.982Z,41.89
2023-05-15T08:40:38.433Z,41.69
2023-05-15T08:43:11.261Z,41.86
2023-05-15T08:45:38.503Z,42.00
2023-05-15T09:10:49.475Z,41.78
2023-05-15T09:22:34.110Z,41.02
2023-05-15T09:25:03.838Z,40.93
2023-05-15T09:27:31.251Z,39.91
2023-05-15T09:33:36.729Z,39.10
2023-05-15T09:36:05.227Z,38.64
2023-05-15T09:38:36.581Z,38.11
2023-05-15T09:41:24.301Z,37.50
2023-05-15T09:43:55.398Z,36.51
2023-05-15T09:46:24.490Z,36.26
2023-05-15T09:48:56.706Z,36.39
2023-05-15T09:51:24.657Z,36.97
2023-05-15T09:53:53.180Z,37.50
2023-05-15T09:56:30.403Z,37.95
2023-05-15T09:59:04.403Z,38.37
2023-05-15T10:01:55.481Z,38.58
2023-05-15T10:04:22.949Z,38.75
2023-05-15T10:06:51.021Z,38.79
2023-05-15T10:09:22.582Z,38.74
2023-05-15T10:11:51.296Z,38.37
2023-05-15T10:14:21.708Z,38.10
2023-05-15T10:36:34.449Z,36.44
2023-05-15T10:52:49.097Z,35.66
2023-05-15T11:26:45.734Z,31.12
2023-05-15T11:39:45.320Z,30.48
2023-05-15T13:06:45.653Z,31.75
2023-05-15T13:20:15.789Z,31.95
2023-05-15T14:07:10.121Z,31.68
2023-05-15T14:40:12.138Z,29.96
2023-05-15T15:30:42.596Z,29.31
2023-05-15T15:47:30.910Z,29.05
2023-05-15T16:15:24.098Z,28.39
2023-05-15T16:48:56.666Z,27.37
2023-05-15T16:51:24.961Z,27.29
2023-05-15T16:58:14.793Z,27.12
2023-05-15T17:00:47.885Z,26.96
2023-05-15T17:03:15.645Z,26.83
2023-05-15T17:06:18.662Z,26.74
2023-05-15T17:08:46.506Z,26.69
2023-05-15T17:11:14.059Z,26.62
2023-05-15T17:13:41.316Z,26.56
2023-05-15T17:16:09.075Z,26.46
2023-05-15T17:18:37.715Z,26.36
2023-05-15T17:21:06.169Z,26.18
2023-05-15T17:23:33.555Z,26.08
2023-05-15T17:29:52.936Z,25.75
2023-05-15T17:33:14.541Z,25.57
2023-05-15T17:39:00.427Z,25.46
2023-05-15T17:41:33.312Z,25.34
2023-05-15T18:03:48.589Z,24.77
2023-05-15T18:17:47.313Z,23.89
2023-05-15T18:20:48.871Z,23.80
2023-05-15T18:23:58.920Z,23.74
2023-05-15T18:27:35.857Z,23.71
2023-05-15T18:30:25.336Z,23.64
2023-05-15T18:32:52.892Z,23.64
2023-05-15T18:35:41.989Z,23.60
2023-05-15T18:41:59.977Z,23.49
2023-05-15T18:48:00.313Z,23.43
2023-05-15T18:50:31.300Z,23.38
2023-05-15T18:52:58.733Z,23.35
2023-05-15T18:59:11.077Z,23.26
2023-05-15T19:32:40.100Z,23.02
2023-05-15T19:45:19.901Z,22.95
2023-05-15T19:55:02.879Z,22.79
2023-05-15T19:58:48.783Z,22.73
2023-05-15T20:01:51.927Z,22.66
2023-05-15T20:08:09.915Z,22.53
2023-05-15T20:14:55.950Z,22.35
2023-05-15T20:20:57.882Z,22.19
2023-05-15T20:24:44.049Z,22.10
2023-05-15T20:31:18.908Z,21.91
2023-05-15T20:34:06.061Z,21.80
2023-05-15T20:37:36.890Z,21.74
2023-05-15T20:44:06.938Z,21.66
2023-05-15T20:49:43.510Z,21.57
2023-05-15T20:52:12.166Z,21.56
2023-05-15T20:54:50.741Z,21.53
2023-05-15T21:11:16.924Z,21.29
2023-05-15T21:18:45.773Z,21.30
2023-05-15T21:21:35.745Z,21.24
2023-05-15T21:24:06.599Z,21.25
2023-05-15T21:26:38.945Z,21.22
2023-05-15T21:29:12.714Z,21.19
2023-05-15T21:31:43.721Z,21.14
2023-05-15T21:34:11.736Z,21.09
2023-05-15T21:36:40.406Z,21.05
2023-05-15T21:39:14.073Z,21.00
2023-05-15T21:41:41.342Z,20.95
2023-05-15T21:44:08.660Z,21.04
2023-05-15T21:46:35.979Z,20.92
2023-05-15T21:49:03.680Z,20.99
2023-05-15T21:51:31.054Z,20.95
2023-05-15T21:53:58.203Z,20.91
2023-05-15T21:56:25.296Z,20.81
2023-05-15T21:58:55.532Z,20.76
2023-05-15T22:01:22.852Z,20.74
2023-05-15T22:03:53.651Z,20.71
2023-05-15T22:06:20.697Z,20.64
2023-05-15T22:08:49.219Z,20.52
2023-05-15T22:11:17.358Z,20.36
2023-05-15T22:13:44.499Z,20.25
2023-05-15T22:16:11.699Z,20.16
2023-05-15T22:18:38.891Z,20.08
2023-05-15T22:21:06.594Z,20.02
2023-05-15T22:23:33.702Z,19.94
2023-05-15T22:26:01.215Z,19.89
2023-05-15T22:28:28.344Z,19.88
2023-05-15T22:30:55.666Z,19.84
2023-05-15T22:33:25.985Z,19.80
2023-05-15T22:35:54.183Z,19.78
2023-05-15T22:38:21.777Z,19.72
2023-05-15T22:40:49.682Z,19.70
2023-05-15T22:43:16.862Z,19.71
2023-05-15T22:45:44.029Z,19.67
2023-05-15T22:48:11.170Z,19.61
2023-05-15T22:50:38.569Z,19.53
2023-05-15T22:53:05.709Z,19.50
2023-05-15T22:55:32.865Z,19.48
2023-05-15T22:57:59.977Z,19.49
2023-05-15T23:00:27.268Z,19.44
2023-05-15T23:02:55.682Z,19.40
2023-05-15T23:05:23.188Z,19.37
2023-05-15T23:07:50.318Z,19.36
2023-05-15T23:10:17.414Z,19.34
2023-05-15T23:12:44.503Z,19.30
2023-05-15T23:15:11.829Z,19.27
2023-05-15T23:17:38.986Z,19.25
2023-05-15T23:20:10.721Z,19.22
2023-05-15T23:22:37.772Z,19.19
2023-05-15T23:25:05.037Z,19.19
2023-05-15T23:27:32.208Z,19.21
2023-05-15T23:29:59.615Z,19.18
2023-05-15T23:32:27.001Z,19.16
2023-05-15T23:34:54.682Z,19.16
2023-05-15T23:37:21.789Z,19.15
2023-05-15T23:39:48.901Z,19.12
2023-05-15T23:42:16.106Z,19.08
2023-05-15T23:44:43.135Z,19.04
2023-05-15T23:47:10.182Z,19.03
2023-05-15T23:49:37.258Z,19.01
2023-05-15T23:52:04.547Z,18.99
2023-05-15T23:54:31.635Z,18.98
2023-05-15T23:56:59.232Z,18.97
2023-05-15T23:59:26.337Z,18.89
